Time;durP1;ratioP1;P1;durP2;ratioP2;P2;SDS_P1;SDS_P2;PMS_P1;PMS_P2;Temp;Humidity;BMP_temperature;BMP_pressure;BME280_temperature;BME280_humidity;BME280_pressure;Samples;Min_cycle;Max_cycle;Signal;HPM_P1;HPM_P2
2020/12/16 00:01:05;;;;;;;118.70;46.02;;;;;;;-1.40;100.00;99479.30;4281564;81;43951;-87
2020/12/16 00:07:08;;;;;;;131.07;48.78;;;;;;;-1.33;100.00;99475.13;4382144;80;44250;-88
2020/12/16 00:13:11;;;;;;;125.27;48.63;;;;;;;-1.21;100.00;99481.55;4383180;80;44427;-88
2020/12/16 00:19:13;;;;;;;121.57;47.30;;;;;;;-1.19;100.00;99473.84;4394424;80;43906;-88
2020/12/16 00:25:15;;;;;;;119.02;45.30;;;;;;;-1.34;100.00;99483.17;4383335;80;43914;-87
2020/12/16 00:31:19;;;;;;;133.30;53.45;;;;;;;-1.34;100.00;99477.89;4374705;80;43643;-86
2020/12/16 00:37:20;;;;;;;132.67;52.03;;;;;;;-1.46;100.00;99501.80;4395357;80;43788;-86
2020/12/16 00:43:22;;;;;;;127.95;48.45;;;;;;;-1.49;100.00;99502.09;4356684;81;43730;-87
2020/12/16 00:49:26;;;;;;;119.25;47.03;;;;;;;-1.50;100.00;99496.95;4314779;82;44339;-87
2020/12/16 00:55:28;;;;;;;119.25;47.67;;;;;;;-1.48;100.00;99497.63;4352680;82;43985;-88
2020/12/16 01:01:31;;;;;;;119.40;48.73;;;;;;;-1.49;100.00;99495.50;4383309;80;43931;-86
2020/12/16 01:07:33;;;;;;;115.37;46.58;;;;;;;-1.45;100.00;99496.87;4395332;79;43839;-86
2020/12/16 01:13:37;;;;;;;116.33;47.23;;;;;;;-1.64;100.00;99508.76;4395258;80;43907;-86
2020/12/16 01:19:42;;;;;;;115.97;47.87;;;;;;;-1.48;100.00;99491.89;4322162;81;28575;-86
2020/12/16 01:25:44;;;;;;;122.80;49.88;;;;;;;-1.63;100.00;99493.28;4356336;80;44612;-86
2020/12/16 01:31:49;;;;;;;120.33;49.58;;;;;;;-1.58;100.00;99501.11;4366458;80;44355;-86
2020/12/16 01:38:11;;;;;;;127.00;50.28;;;;;;;-1.33;100.00;99489.63;4603331;76;72411;-85
2020/12/16 01:44:20;;;;;;;120.42;49.63;;;;;;;-1.48;100.00;99499.80;4503326;77;43927;-86
2020/12/16 01:50:26;;;;;;;118.17;46.68;;;;;;;-1.50;100.00;99508.34;4507714;78;43906;-85
2020/12/16 01:56:30;;;;;;;122.30;50.60;;;;;;;-1.36;100.00;99507.55;4510150;78;28607;-85
2020/12/16 02:02:42;;;;;;;114.05;47.43;;;;;;;-1.62;100.00;99516.88;4501707;78;44168;-84
2020/12/16 02:08:47;;;;;;;115.50;47.43;;;;;;;-1.68;100.00;99530.61;4468488;77;43896;-85
2020/12/16 02:14:51;;;;;;;110.00;44.13;;;;;;;-1.69;100.00;99536.39;4446519;78;44340;-87
2020/12/16 02:20:57;;;;;;;116.00;45.23;;;;;;;-1.55;100.00;99535.61;4427601;78;43920;-87
2020/12/16 02:27:03;;;;;;;115.85;48.92;;;;;;;-1.63;100.00;99536.79;4507408;78;43904;-86
2020/12/16 02:33:07;;;;;;;118.37;47.30;;;;;;;-1.47;100.00;99545.45;4471250;78;43943;-87
2020/12/16 02:39:12;;;;;;;;;;;;;;;-1.29;100.00;99540.31;4504587;77;28558;-87
2020/12/16 02:45:16;;;;;;;110.40;46.53;;;;;;;-1.31;100.00;99523.77;4493468;77;44331;-89
2020/12/16 02:51:20;;;;;;;106.97;46.35;;;;;;;-1.17;100.00;99522.48;4504877;78;44356;-87
2020/12/16 02:57:24;;;;;;;109.55;46.53;;;;;;;-1.49;100.00;99535.06;4508808;78;44460;-87
2020/12/16 03:03:29;;;;;;;111.08;46.23;;;;;;;-1.55;100.00;99543.52;4451693;78;28544;-88
2020/12/16 03:09:46;;;;;;;116.93;47.50;;;;;;;-1.44;100.00;99535.95;4618316;76;76965;-88
2020/12/16 03:15:50;;;;;;;107.87;46.28;;;;;;;-1.51;100.00;99550.67;4511126;78;44251;-89
2020/12/16 03:21:54;;;;;;;108.57;45.33;;;;;;;-1.38;100.00;99545.11;4511524;78;44280;-88
2020/12/16 03:27:59;;;;;;;101.65;44.55;;;;;;;-1.62;100.00;99549.00;4510499;78;28993;-89
2020/12/16 03:34:12;;;;;;;98.00;42.53;;;;;;;-1.24;100.00;99548.62;4605480;76;84878;-87
2020/12/16 03:40:16;;;;;;;99.87;42.93;;;;;;;-1.31;100.00;99550.15;4494329;78;43959;-86
2020/12/16 03:46:20;;;;;;;112.60;44.70;;;;;;;-1.51;100.00;99555.48;4500344;78;44622;-86
2020/12/16 03:52:23;;;;;;;104.30;42.58;;;;;;;-1.47;100.00;99562.12;4461353;78;44322;-86
2020/12/16 03:58:35;;;;;;;122.77;60.20;;;;;;;-1.39;100.00;99545.59;4336440;79;275042;-86
2020/12/16 04:04:45;;;;;;;100.02;44.50;;;;;;;-1.04;100.00;99544.62;4319160;80;44253;-85
2020/12/16 04:10:49;;;;;;;105.65;46.45;;;;;;;-1.28;100.00;99546.74;4280438;80;44269;-86
2020/12/16 04:16:56;;;;;;;101.53;42.98;;;;;;;-1.28;100.00;99551.20;4328692;81;43926;-88
2020/12/16 04:23:00;;;;;;;100.38;43.05;;;;;;;-1.22;100.00;99558.53;4274491;80;44002;-85
2020/12/16 04:29:04;;;;;;;96.32;43.55;;;;;;;-0.95;100.00;99550.83;4295844;81;43754;-85
2020/12/16 04:35:07;;;;;;;99.52;44.08;;;;;;;-1.06;100.00;99559.27;4323325;80;44306;-85
2020/12/16 04:41:10;;;;;;;100.85;43.63;;;;;;;-1.14;100.00;99566.58;4262150;81;43865;-87
2020/12/16 04:47:16;;;;;;;106.03;47.45;;;;;;;-0.95;100.00;99557.43;4315180;80;44339;-87
2020/12/16 04:53:23;;;;;;;111.62;46.65;;;;;;;-0.83;100.00;99554.98;4323909;80;44639;-86
2020/12/16 04:59:26;;;;;;;;;;;;;;;-1.17;100.00;99572.16;4335801;80;28545;-86
2020/12/16 05:05:36;;;;;;;102.82;43.17;;;;;;;-1.19;100.00;99581.17;4341106;80;44267;-86
2020/12/16 05:11:47;;;;;;;107.80;44.83;;;;;;;-1.20;100.00;99570.28;4344728;80;44326;-86
2020/12/16 05:18:22;;;;;;;99.47;43.65;;;;;;;-1.15;100.00;99586.51;4319117;81;43851;-86
2020/12/16 05:24:24;;;;;;;111.37;47.53;;;;;;;-1.28;100.00;99585.00;4332691;80;34462;-87
2020/12/16 05:30:26;;;;;;;113.57;45.40;;;;;;;-1.31;100.00;99595.84;4348897;80;44597;-86
2020/12/16 05:36:30;;;;;;;118.67;50.12;;;;;;;-1.47;100.00;99600.84;4313162;80;43563;-86
2020/12/16 05:42:34;;;;;;;130.27;54.13;;;;;;;-1.53;100.00;99614.59;4338626;80;28541;-86
2020/12/16 05:48:37;;;;;;;124.18;51.63;;;;;;;-1.57;100.00;99616.17;4320022;80;43807;-87
2020/12/16 05:54:40;;;;;;;143.05;57.20;;;;;;;-1.59;100.00;99623.39;4328565;80;44289;-85
2020/12/16 06:00:52;;;;;;;131.52;56.65;;;;;;;-1.66;100.00;99628.89;4310858;80;43128;-88
2020/12/16 06:06:57;;;;;;;;;;;;;;;-1.75;100.00;99627.08;4308916;82;28595;-87
2020/12/16 06:13:05;;;;;;;126.60;52.88;;;;;;;-1.85;100.00;99627.89;4293796;80;44314;-87
2020/12/16 06:19:10;;;;;;;119.37;49.48;;;;;;;-1.89;100.00;99637.52;4314437;80;43932;-88
2020/12/16 06:25:16;;;;;;;127.58;50.58;;;;;;;-1.89;100.00;99638.84;4310992;82;44177;-88
2020/12/16 06:31:27;;;;;;;116.75;49.00;;;;;;;-1.92;100.00;99651.80;4301886;82;43924;-87
2020/12/16 06:37:29;;;;;;;114.10;48.30;;;;;;;-1.92;100.00;99653.62;4327775;80;43865;-88
2020/12/16 06:43:41;;;;;;;110.75;45.88;;;;;;;-2.07;100.00;99658.42;4316905;80;44306;-90
2020/12/16 06:49:43;;;;;;;95.28;40.83;;;;;;;-2.07;100.00;99656.61;4312925;80;43269;-88
2020/12/16 06:56:06;;;;;;;101.47;41.65;;;;;;;-2.05;100.00;99652.03;4307128;81;43904;-91
2020/12/16 07:02:14;;;;;;;107.95;44.60;;;;;;;-1.99;100.00;99651.98;4338354;80;44253;-88
2020/12/16 07:08:27;;;;;;;100.67;42.60;;;;;;;-2.09;100.00;99657.23;4368485;80;43906;-90
2020/12/16 07:14:36;;;;;;;88.87;36.95;;;;;;;-2.11;100.00;99650.77;4351555;80;44474;-88
2020/12/16 07:20:38;;;;;;;91.37;38.63;;;;;;;-1.97;100.00;99647.42;4340956;80;44462;-89
2020/12/16 07:26:48;;;;;;;75.28;33.53;;;;;;;-1.83;100.00;99656.73;4328535;80;28574;-89
2020/12/16 07:32:50;;;;;;;78.75;33.78;;;;;;;-1.84;100.00;99662.50;4332494;80;43076;-89
2020/12/16 07:38:55;;;;;;;77.53;32.55;;;;;;;-1.80;100.00;99664.39;4323745;80;43573;-89
2020/12/16 07:45:00;;;;;;;77.03;33.42;;;;;;;-1.85;100.00;99668.75;4327001;80;41822;-90
2020/12/16 07:51:05;;;;;;;84.83;35.90;;;;;;;-1.66;100.00;99670.23;4335240;80;28583;-90
2020/12/16 07:57:08;;;;;;;89.20;36.08;;;;;;;-1.27;100.00;99673.73;4295948;81;44452;-89
2020/12/16 08:03:13;;;;;;;79.12;34.73;;;;;;;-1.03;100.00;99684.85;4301008;80;43106;-89
2020/12/16 08:09:21;;;;;;;76.23;33.80;;;;;;;-0.96;100.00;99683.33;4319962;80;28576;-88
2020/12/16 08:15:27;;;;;;;75.75;32.45;;;;;;;-1.05;100.00;99690.26;4201341;83;44124;-89
2020/12/16 08:21:29;;;;;;;69.87;32.85;;;;;;;-0.94;100.00;99692.41;4181218;83;44113;-89
2020/12/16 08:27:32;;;;;;;80.10;34.43;;;;;;;-0.85;100.00;99700.81;4213185;85;43078;-89
2020/12/16 08:33:35;;;;;;;81.90;35.98;;;;;;;-0.70;100.00;99703.84;4174292;84;43387;-88
2020/12/16 08:39:43;;;;;;;91.75;39.30;;;;;;;-0.76;100.00;99703.92;4193878;84;44447;-87
2020/12/16 08:45:47;;;;;;;78.83;36.48;;;;;;;-0.57;100.00;99711.00;4216759;84;43404;-88
2020/12/16 08:51:49;;;;;;;103.17;44.93;;;;;;;-0.13;100.00;99716.23;4193041;84;43998;-83
2020/12/16 08:57:54;;;;;;;123.45;51.70;;;;;;;-0.02;100.00;99718.69;4200981;84;44098;-92
2020/12/16 09:03:58;;;;;;;122.60;53.25;;;;;;;0.06;100.00;99717.14;4203796;84;44300;-90
2020/12/16 09:10:02;;;;;;;117.97;53.10;;;;;;;0.15;100.00;99731.29;4193452;84;44373;-92
2020/12/16 09:16:05;;;;;;;133.35;58.15;;;;;;;0.18;100.00;99738.45;4195363;84;43264;-90
2020/12/16 09:22:11;;;;;;;123.47;54.70;;;;;;;0.46;100.00;99745.03;4211392;84;44281;-91
2020/12/16 09:28:13;;;;;;;120.42;53.28;;;;;;;0.71;100.00;99745.80;4185331;84;44288;-88
2020/12/16 09:34:16;;;;;;;127.58;55.58;;;;;;;0.83;100.00;99744.13;4197336;83;43846;-88
2020/12/16 09:40:24;;;;;;;116.73;51.83;;;;;;;0.74;100.00;99742.87;4187595;84;43410;-90
2020/12/16 09:46:26;;;;;;;110.48;47.80;;;;;;;0.93;100.00;99747.19;4178287;84;44254;-89
2020/12/16 09:52:43;;;;;;;105.32;46.15;;;;;;;1.16;100.00;99750.70;4183403;84;44253;-95
2020/12/16 09:58:46;;;;;;;83.17;40.73;;;;;;;1.24;100.00;99750.27;4213575;83;28627;-87
2020/12/16 10:04:51;;;;;;;88.58;39.63;;;;;;;1.35;100.00;99747.89;4184598;83;44455;-88
2020/12/16 10:10:55;;;;;;;70.37;30.40;;;;;;;1.49;100.00;99746.98;4181341;84;28636;-90
2020/12/16 10:17:01;;;;;;;;;;;;;;;1.70;100.00;99748.45;4196980;84;28545;-91
2020/12/16 10:23:16;;;;;;;54.25;24.72;;;;;;;2.01;100.00;99753.28;4200260;84;20258;-90
2020/12/16 10:29:24;;;;;;;48.73;22.10;;;;;;;2.18;100.00;99749.73;4184399;84;28617;-90
2020/12/16 10:35:26;;;;;;;56.30;24.77;;;;;;;2.37;100.00;99757.11;4196990;83;28545;-88
2020/12/16 10:41:31;;;;;;;51.92;24.35;;;;;;;2.39;100.00;99749.81;4193203;84;28551;-89
2020/12/16 10:47:33;;;;;;;51.28;23.47;;;;;;;2.40;100.00;99744.03;4179812;84;28609;-88
2020/12/16 10:53:39;;;;;;;50.85;23.85;;;;;;;2.41;100.00;99750.48;4190961;84;28594;-88
2020/12/16 10:59:47;;;;;;;52.85;26.07;;;;;;;2.50;100.00;99754.02;4154747;84;28593;-88
2020/12/16 11:05:49;;;;;;;47.50;23.05;;;;;;;2.62;100.00;99738.60;4182306;84;28597;-85
2020/12/16 11:11:56;;;;;;;41.50;19.12;;;;;;;2.74;100.00;99735.97;4208442;84;28569;-88
2020/12/16 11:18:05;;;;;;;41.85;18.80;;;;;;;2.86;100.00;99729.86;4198374;84;28572;-87
2020/12/16 11:24:16;;;;;;;34.90;16.20;;;;;;;3.04;100.00;99728.38;4177660;84;28590;-85
2020/12/16 11:30:18;;;;;;;30.08;14.58;;;;;;;3.06;100.00;99724.24;4181674;83;28607;-88
2020/12/16 11:36:20;;;;;;;34.78;15.20;;;;;;;3.17;100.00;99726.57;4188814;84;28554;-88
2020/12/16 11:42:23;;;;;;;32.15;14.43;;;;;;;3.33;100.00;99723.56;4169196;84;28611;-87
2020/12/16 11:48:25;;;;;;;29.37;14.00;;;;;;;3.45;100.00;99722.73;4208473;84;28591;-86
2020/12/16 11:54:28;;;;;;;33.73;15.53;;;;;;;3.48;100.00;99721.06;4189339;84;28581;-87
2020/12/16 12:00:31;;;;;;;28.02;13.48;;;;;;;3.54;100.00;99711.09;4179344;84;28576;-86
2020/12/16 12:06:35;;;;;;;31.75;14.87;;;;;;;3.56;100.00;99717.59;4193755;84;28646;-87
2020/12/16 12:12:37;;;;;;;36.68;17.00;;;;;;;3.61;100.00;99721.40;4167863;84;28581;-87
2020/12/16 12:18:45;;;;;;;42.45;19.27;;;;;;;3.61;100.00;99724.55;4185115;84;28573;-86
2020/12/16 12:24:49;;;;;;;37.30;17.80;;;;;;;3.77;100.00;99730.33;4200585;84;28589;-86
2020/12/16 12:30:51;;;;;;;37.65;17.60;;;;;;;3.77;100.00;99721.02;4210640;84;28648;-85
2020/12/16 12:36:54;;;;;;;47.98;21.20;;;;;;;3.98;100.00;99720.97;4208180;84;28577;-90
2020/12/16 12:42:56;;;;;;;41.25;19.50;;;;;;;3.86;100.00;99721.33;4192001;84;28550;-92
2020/12/16 12:48:58;;;;;;;39.45;18.48;;;;;;;3.84;100.00;99721.16;4180275;84;28577;-90
2020/12/16 12:55:01;;;;;;;38.30;17.77;;;;;;;3.88;100.00;99719.33;4216479;84;28573;-88
2020/12/16 13:01:03;;;;;;;41.88;19.77;;;;;;;3.93;100.00;99718.00;4310535;82;28557;-87
2020/12/16 13:07:05;;;;;;;41.50;19.75;;;;;;;4.01;100.00;99720.62;4276437;82;28560;-88
2020/12/16 13:13:09;;;;;;;38.55;19.25;;;;;;;3.84;100.00;99715.84;4285212;82;28567;-85
2020/12/16 13:19:16;;;;;;;39.03;18.57;;;;;;;3.83;100.00;99707.05;4208043;82;28592;-85
2020/12/16 13:25:19;;;;;;;37.50;17.75;;;;;;;3.77;100.00;99711.71;4237484;82;28627;-86
2020/12/16 13:31:21;;;;;;;38.08;18.30;;;;;;;3.74;100.00;99710.21;4351145;80;28559;-86
2020/12/16 13:37:23;;;;;;;39.05;19.40;;;;;;;3.93;100.00;99714.83;4378305;80;28602;-84
2020/12/16 13:43:25;;;;;;;43.13;20.52;;;;;;;3.68;100.00;99714.90;4372658;80;28545;-85
2020/12/16 13:49:27;;;;;;;37.90;19.32;;;;;;;3.51;100.00;99717.24;4353274;80;28553;-87
2020/12/16 13:55:30;;;;;;;39.13;18.92;;;;;;;3.34;100.00;99714.62;4339293;81;28569;-86
2020/12/16 14:01:33;;;;;;;37.55;18.37;;;;;;;3.24;100.00;99715.28;4177695;84;28619;-87
2020/12/16 14:07:35;;;;;;;39.23;18.82;;;;;;;3.31;100.00;99719.77;4178300;84;28596;-84
2020/12/16 14:13:40;;;;;;;43.25;19.12;;;;;;;3.14;100.00;99732.22;4201715;82;28547;-86
2020/12/16 14:19:42;;;;;;;46.88;19.48;;;;;;;3.09;100.00;99731.88;4257721;83;28590;-84
2020/12/16 14:25:44;;;;;;;41.35;20.35;;;;;;;2.98;100.00;99729.06;4246247;83;28563;-86
2020/12/16 14:38:04;;;;;;;36.85;18.98;;;;;;;2.90;100.00;99727.20;4374063;79;86368;-88
2020/12/16 14:44:06;;;;;;;39.33;19.00;;;;;;;2.93;100.00;99729.55;4313169;80;28607;-87
2020/12/16 14:50:08;;;;;;;43.70;20.25;;;;;;;2.77;100.00;99725.53;4326850;80;28585;-87
2020/12/16 15:02:53;;;;;;;41.30;19.60;;;;;;;2.54;100.00;99725.30;4555010;76;63281;-88
2020/12/16 15:08:58;;;;;;;40.53;20.13;;;;;;;2.51;100.00;99735.77;4473120;78;28542;-88
2020/12/16 15:15:01;;;;;;;35.58;16.67;;;;;;;2.40;100.00;99732.89;4445660;78;28601;-86
2020/12/16 15:21:13;;;;;;;36.30;17.07;;;;;;;2.43;100.00;99738.39;4409343;79;28619;-85
2020/12/16 15:27:32;;;;;;;38.17;19.00;;;;;;;2.43;100.00;99744.52;4387667;79;28651;-87
2020/12/16 15:33:35;;;;;;;38.17;17.80;;;;;;;2.38;100.00;99749.48;4317970;80;28600;-84
2020/12/16 15:39:37;;;;;;;49.35;22.50;;;;;;;2.26;100.00;99741.48;4391064;79;28618;-85
2020/12/16 15:45:43;;;;;;;46.00;21.48;;;;;;;2.32;100.00;99743.00;4389620;79;28626;-87
2020/12/16 15:51:46;;;;;;;42.90;19.73;;;;;;;2.34;100.00;99744.14;4469318;78;28540;-88
2020/12/16 15:57:48;;;;;;;47.53;20.57;;;;;;;2.37;100.00;99746.50;4446081;78;28662;-87
2020/12/16 16:10:16;;;;;;;41.15;21.02;;;;;;;2.58;100.00;99748.70;4380474;79;72190;-87
2020/12/16 16:16:19;;;;;;;44.53;21.23;;;;;;;2.41;100.00;99757.12;4323406;80;28565;-84
2020/12/16 16:22:21;;;;;;;45.45;22.40;;;;;;;2.38;100.00;99765.41;4332766;80;28651;-89
2020/12/16 16:28:23;;;;;;;53.63;22.77;;;;;;;2.40;100.00;99768.73;4330019;80;28573;-87
2020/12/16 16:34:26;;;;;;;43.30;20.20;;;;;;;2.34;100.00;99776.83;4324605;80;28628;-89
2020/12/16 16:40:29;;;;;;;46.48;22.00;;;;;;;2.35;100.00;99771.86;4321329;80;28673;-84
2020/12/16 16:46:31;;;;;;;41.53;20.60;;;;;;;2.34;100.00;99775.98;4313031;80;28587;-87
2020/12/16 16:52:35;;;;;;;47.35;22.25;;;;;;;2.41;100.00;99790.80;4319671;80;28583;-83
2020/12/16 16:58:38;;;;;;;46.40;22.55;;;;;;;2.44;100.00;99792.63;4330344;80;28569;-86
2020/12/16 17:04:45;;;;;;;49.98;23.80;;;;;;;2.47;100.00;99794.13;4314406;80;28726;-84
2020/12/16 17:10:49;;;;;;;47.95;23.20;;;;;;;2.55;100.00;99791.52;4329937;80;28603;-90
2020/12/16 17:16:51;;;;;;;50.28;23.42;;;;;;;2.54;100.00;99789.02;4323271;80;28588;-87
2020/12/16 17:22:53;;;;;;;46.48;22.40;;;;;;;2.48;100.00;99786.50;4315219;80;28562;-85
2020/12/16 17:28:57;;;;;;;49.73;23.20;;;;;;;2.49;100.00;99798.30;4300178;80;28586;-85
2020/12/16 17:34:59;;;;;;;55.48;25.65;;;;;;;2.53;100.00;99804.13;4333715;80;28540;-85
2020/12/16 17:41:02;;;;;;;53.25;25.77;;;;;;;2.50;100.00;99801.28;4337012;80;28650;-88
2020/12/16 17:47:07;;;;;;;59.30;26.93;;;;;;;2.63;100.00;99810.63;4334702;80;28640;-86
2020/12/16 17:53:10;;;;;;;51.50;26.07;;;;;;;2.61;100.00;99811.28;4336742;81;28622;-84
2020/12/16 17:59:12;;;;;;;58.17;28.57;;;;;;;2.50;100.00;99816.40;4332349;80;28611;-87
2020/12/16 18:05:14;;;;;;;58.25;27.37;;;;;;;2.61;100.00;99829.87;4317339;80;28572;-83
2020/12/16 18:11:20;;;;;;;62.65;28.35;;;;;;;2.61;100.00;99837.35;4318392;80;28603;-83
2020/12/16 18:17:22;;;;;;;56.88;27.70;;;;;;;2.71;100.00;99842.52;4308990;80;28531;-85
2020/12/16 18:23:24;;;;;;;63.30;30.50;;;;;;;2.71;100.00;99839.02;4320328;80;28642;-83
2020/12/16 18:29:26;;;;;;;67.55;31.45;;;;;;;2.69;100.00;99847.17;4340123;80;28548;-84
2020/12/16 18:35:32;;;;;;;;;;;;;;;2.70;100.00;99843.52;4318661;80;28548;-83
2020/12/16 18:41:41;;;;;;;63.98;29.27;;;;;;;2.59;100.00;99842.48;4289842;80;20195;-84
2020/12/16 18:47:44;;;;;;;61.37;29.10;;;;;;;2.51;100.00;99844.09;4322754;80;28595;-83
2020/12/16 18:53:47;;;;;;;62.45;29.67;;;;;;;2.60;100.00;99848.97;4298638;80;28844;-82
2020/12/16 18:59:49;;;;;;;62.73;31.02;;;;;;;2.71;100.00;99848.31;4312144;80;28562;-84
2020/12/16 19:05:57;;;;;;;72.80;35.40;;;;;;;2.67;100.00;99861.11;4303683;80;28589;-84
2020/12/16 19:11:59;;;;;;;77.15;35.40;;;;;;;2.72;100.00;99868.08;4305592;80;28586;-85
2020/12/16 19:18:03;;;;;;;73.50;35.80;;;;;;;2.68;100.00;99874.72;4351167;80;28581;-85
2020/12/16 19:24:05;;;;;;;79.82;36.90;;;;;;;2.76;100.00;99872.59;4314137;80;28587;-83
2020/12/16 19:30:11;;;;;;;73.07;34.05;;;;;;;2.56;100.00;99875.48;4312883;81;28623;-83
2020/12/16 19:36:14;;;;;;;71.05;32.98;;;;;;;2.56;100.00;99872.01;4310268;80;28560;-83
2020/12/16 19:42:16;;;;;;;70.05;32.85;;;;;;;2.70;100.00;99871.41;4233214;82;28582;-83
2020/12/16 19:48:18;;;;;;;75.28;35.45;;;;;;;2.68;100.00;99881.36;4184894;83;28664;-90
2020/12/16 19:54:26;;;;;;;72.15;34.88;;;;;;;2.64;100.00;99883.49;4198210;84;28565;-85
2020/12/16 20:00:29;;;;;;;77.10;35.78;;;;;;;2.62;100.00;99880.17;4186603;84;28553;-86
2020/12/16 20:06:40;;;;;;;77.82;36.48;;;;;;;2.68;100.00;99891.13;4167901;84;28599;-85
2020/12/16 20:12:43;;;;;;;70.52;35.70;;;;;;;2.65;100.00;99897.10;4192894;84;28568;-87
2020/12/16 20:18:46;;;;;;;68.80;32.95;;;;;;;2.57;100.00;99894.91;4226540;84;28541;-86
2020/12/16 20:24:50;;;;;;;67.82;33.48;;;;;;;2.68;100.00;99898.61;4222709;82;28628;-89
2020/12/16 20:30:53;;;;;;;79.65;37.28;;;;;;;2.75;100.00;99893.50;4221289;82;28600;-88
2020/12/16 20:36:59;;;;;;;81.50;38.55;;;;;;;2.72;100.00;99894.64;4208679;84;28625;-85
2020/12/16 20:43:09;;;;;;;84.77;38.60;;;;;;;2.76;100.00;99896.00;4239765;84;28586;-90
2020/12/16 20:49:13;;;;;;;75.45;35.50;;;;;;;2.92;100.00;99899.23;4202108;84;28620;-87
2020/12/16 20:55:18;;;;;;;76.47;34.90;;;;;;;3.00;100.00;99913.03;4295482;81;28684;-87
2020/12/16 21:01:21;;;;;;;78.70;35.92;;;;;;;2.74;100.00;99919.20;4320800;81;28603;-87
2020/12/16 21:07:25;;;;;;;75.52;36.40;;;;;;;2.69;100.00;99916.69;4354925;81;28621;-88
2020/12/16 21:13:27;;;;;;;88.12;40.28;;;;;;;2.62;100.00;99909.86;4329114;80;28582;-80
2020/12/16 21:19:29;;;;;;;86.00;39.05;;;;;;;2.62;100.00;99909.86;4195645;84;28539;-83
2020/12/16 21:25:31;;;;;;;78.57;37.45;;;;;;;2.55;100.00;99913.64;4197946;83;28562;-82
2020/12/16 21:31:33;;;;;;;72.67;33.95;;;;;;;2.56;100.00;99909.99;4222115;82;28576;-82
2020/12/16 21:37:37;;;;;;;79.10;36.05;;;;;;;2.66;100.00;99912.55;4187078;83;28589;-80
2020/12/16 21:43:41;;;;;;;85.83;39.67;;;;;;;2.83;100.00;99913.94;4178389;84;28664;-83
2020/12/16 21:49:46;;;;;;;88.82;40.50;;;;;;;2.84;100.00;99914.28;4189012;84;28549;-83
2020/12/16 21:55:48;;;;;;;94.35;42.55;;;;;;;2.73;100.00;99910.91;4192007;84;28598;-82
2020/12/16 22:01:53;;;;;;;87.62;41.42;;;;;;;2.76;100.00;99922.56;4169346;84;28617;-84
2020/12/16 22:07:55;;;;;;;84.47;39.48;;;;;;;2.58;100.00;99917.81;4233194;82;28572;-85
2020/12/16 22:14:01;;;;;;;83.85;37.40;;;;;;;2.56;100.00;99917.14;4279131;82;28554;-88
2020/12/16 22:20:04;;;;;;;80.10;37.28;;;;;;;2.55;100.00;99914.97;4254940;82;28573;-85
2020/12/16 22:26:07;;;;;;;86.82;40.00;;;;;;;2.69;100.00;99918.02;4243402;84;28580;-85
2020/12/16 22:32:09;;;;;;;90.15;40.58;;;;;;;2.68;100.00;99917.69;4263227;82;28616;-84
2020/12/16 22:38:11;;;;;;;88.25;42.73;;;;;;;2.69;100.00;99920.67;4266641;82;28637;-84
2020/12/16 22:44:14;;;;;;;93.90;43.25;;;;;;;2.64;100.00;99925.13;4273373;82;28612;-84
2020/12/16 22:50:17;;;;;;;88.72;41.73;;;;;;;2.64;100.00;99924.64;4260241;82;28584;-83
2020/12/16 22:56:21;;;;;;;82.88;40.38;;;;;;;2.69;100.00;99924.17;4253275;82;28600;-84
2020/12/16 23:02:26;;;;;;;80.28;39.15;;;;;;;2.75;100.00;99925.37;4316287;82;28566;-84
2020/12/16 23:08:28;;;;;;;90.85;44.45;;;;;;;2.72;100.00;99924.36;4276494;82;28602;-85
2020/12/16 23:14:30;;;;;;;93.87;45.67;;;;;;;2.81;100.00;99916.75;4182733;84;28607;-84
2020/12/16 23:20:36;;;;;;;105.87;48.20;;;;;;;2.71;100.00;99915.55;4195962;84;28638;-85
2020/12/16 23:32:57;;;;;;;90.75;43.58;;;;;;;2.70;100.00;99912.56;4403689;79;86562;-84
2020/12/16 23:38:59;;;;;;;85.47;41.28;;;;;;;2.72;100.00;99919.05;4333944;80;28588;-84
2020/12/16 23:45:04;;;;;;;86.67;40.17;;;;;;;2.66;100.00;99917.86;4316571;80;28620;-86
2020/12/16 23:51:07;;;;;;;96.25;45.10;;;;;;;2.77;100.00;99920.72;4317108;80;28539;-85
2020/12/16 23:57:09;;;;;;;103.90;47.05;;;;;;;2.83;100.00;99920.58;4306739;80;28546;-84
